sensor_id;sensor_type;location;lat;lon;timestamp;P1;durP1;ratioP1;P2;durP2;ratioP2
36827;SDS011;22766;48.042;11.192;2023-06-22T00:02:26;7.35;;;2.72;;
36827;SDS011;22766;48.042;11.192;2023-06-22T00:04:53;4.07;;;2.20;;
36827;SDS011;22766;48.042;11.192;2023-06-22T00:07:20;6.07;;;1.90;;
36827;SDS011;22766;48.042;11.192;2023-06-22T00:09:46;4.40;;;2.25;;
36827;SDS011;22766;48.042;11.192;2023-06-22T00:12:13;6.65;;;2.33;;
36827;SDS011;22766;48.042;11.192;2023-06-22T00:14:40;5.03;;;2.28;;
36827;SDS011;22766;48.042;11.192;2023-06-22T00:17:06;5.40;;;2.22;;
36827;SDS011;22766;48.042;11.192;2023-06-22T00:19:33;5.80;;;1.95;;
36827;SDS011;22766;48.042;11.192;2023-06-22T00:22:02;4.53;;;2.33;;
36827;SDS011;22766;48.042;11.192;2023-06-22T00:24:29;6.25;;;2.60;;
36827;SDS011;22766;48.042;11.192;2023-06-22T00:26:56;4.78;;;2.20;;
36827;SDS011;22766;48.042;11.192;2023-06-22T00:29:23;9.20;;;2.05;;
36827;SDS011;22766;48.042;11.192;2023-06-22T00:31:51;6.88;;;2.13;;
36827;SDS011;22766;48.042;11.192;2023-06-22T00:34:18;6.85;;;2.67;;
36827;SDS011;22766;48.042;11.192;2023-06-22T00:36:44;6.53;;;2.42;;
36827;SDS011;22766;48.042;11.192;2023-06-22T00:39:12;10.45;;;3.28;;
36827;SDS011;22766;48.042;11.192;2023-06-22T00:41:39;6.13;;;2.47;;
36827;SDS011;22766;48.042;11.192;2023-06-22T00:44:05;8.35;;;2.50;;
36827;SDS011;22766;48.042;11.192;2023-06-22T00:46:33;10.95;;;2.88;;
36827;SDS011;22766;48.042;11.192;2023-06-22T00:49:00;5.25;;;2.42;;
36827;SDS011;22766;48.042;11.192;2023-06-22T00:51:27;9.05;;;2.97;;
36827;SDS011;22766;48.042;11.192;2023-06-22T00:53:54;6.93;;;2.28;;
36827;SDS011;22766;48.042;11.192;2023-06-22T00:56:22;6.35;;;2.55;;
36827;SDS011;22766;48.042;11.192;2023-06-22T00:58:51;14.50;;;2.88;;
36827;SDS011;22766;48.042;11.192;2023-06-22T01:01:19;9.80;;;3.20;;
36827;SDS011;22766;48.042;11.192;2023-06-22T01:03:50;7.63;;;3.63;;
36827;SDS011;22766;48.042;11.192;2023-06-22T01:06:28;7.05;;;2.50;;
36827;SDS011;22766;48.042;11.192;2023-06-22T01:09:25;8.52;;;2.30;;
36827;SDS011;22766;48.042;11.192;2023-06-22T01:12:00;17.83;;;3.33;;
36827;SDS011;22766;48.042;11.192;2023-06-22T01:14:45;12.43;;;2.83;;
36827;SDS011;22766;48.042;11.192;2023-06-22T01:17:18;7.95;;;2.92;;
36827;SDS011;22766;48.042;11.192;2023-06-22T01:19:47;11.50;;;3.17;;
36827;SDS011;22766;48.042;11.192;2023-06-22T01:22:26;5.63;;;2.30;;
36827;SDS011;22766;48.042;11.192;2023-06-22T01:27:36;7.30;;;2.53;;
36827;SDS011;22766;48.042;11.192;2023-06-22T01:30:13;9.38;;;2.67;;
36827;SDS011;22766;48.042;11.192;2023-06-22T01:32:43;8.07;;;3.03;;
36827;SDS011;22766;48.042;11.192;2023-06-22T01:35:10;7.53;;;2.97;;
36827;SDS011;22766;48.042;11.192;2023-06-22T01:37:38;5.60;;;2.47;;
36827;SDS011;22766;48.042;11.192;2023-06-22T01:40:06;9.85;;;3.22;;
36827;SDS011;22766;48.042;11.192;2023-06-22T01:42:35;6.22;;;2.72;;
36827;SDS011;22766;48.042;11.192;2023-06-22T01:45:03;5.85;;;2.78;;
36827;SDS011;22766;48.042;11.192;2023-06-22T01:47:31;6.68;;;2.83;;
36827;SDS011;22766;48.042;11.192;2023-06-22T01:49:59;7.45;;;2.92;;
36827;SDS011;22766;48.042;11.192;2023-06-22T01:52:25;11.68;;;3.25;;
36827;SDS011;22766;48.042;11.192;2023-06-22T01:54:52;6.57;;;2.40;;
36827;SDS011;22766;48.042;11.192;2023-06-22T01:57:19;9.65;;;3.28;;
36827;SDS011;22766;48.042;11.192;2023-06-22T01:59:59;7.50;;;2.92;;
36827;SDS011;22766;48.042;11.192;2023-06-22T02:02:31;11.50;;;2.60;;
36827;SDS011;22766;48.042;11.192;2023-06-22T02:05:19;7.50;;;2.95;;
36827;SDS011;22766;48.042;11.192;2023-06-22T02:07:52;4.72;;;2.45;;
36827;SDS011;22766;48.042;11.192;2023-06-22T02:10:29;7.13;;;2.60;;
36827;SDS011;22766;48.042;11.192;2023-06-22T02:12:57;9.07;;;3.00;;
36827;SDS011;22766;48.042;11.192;2023-06-22T02:15:26;7.97;;;2.90;;
36827;SDS011;22766;48.042;11.192;2023-06-22T02:17:54;9.40;;;3.00;;
36827;SDS011;22766;48.042;11.192;2023-06-22T02:20:21;7.45;;;2.55;;
36827;SDS011;22766;48.042;11.192;2023-06-22T02:22:49;6.85;;;3.05;;
36827;SDS011;22766;48.042;11.192;2023-06-22T02:25:16;13.30;;;3.25;;
36827;SDS011;22766;48.042;11.192;2023-06-22T02:27:45;8.18;;;3.40;;
36827;SDS011;22766;48.042;11.192;2023-06-22T02:30:11;8.02;;;3.00;;
36827;SDS011;22766;48.042;11.192;2023-06-22T02:32:38;8.35;;;3.65;;
36827;SDS011;22766;48.042;11.192;2023-06-22T02:35:08;8.32;;;2.97;;
36827;SDS011;22766;48.042;11.192;2023-06-22T02:37:36;11.07;;;3.65;;
36827;SDS011;22766;48.042;11.192;2023-06-22T02:40:08;11.07;;;3.42;;
36827;SDS011;22766;48.042;11.192;2023-06-22T02:42:39;10.32;;;3.10;;
36827;SDS011;22766;48.042;11.192;2023-06-22T02:45:06;8.63;;;3.30;;
36827;SDS011;22766;48.042;11.192;2023-06-22T02:47:33;8.35;;;4.07;;
36827;SDS011;22766;48.042;11.192;2023-06-22T02:50:00;6.63;;;3.53;;
36827;SDS011;22766;48.042;11.192;2023-06-22T02:52:30;7.88;;;3.42;;
36827;SDS011;22766;48.042;11.192;2023-06-22T02:54:57;7.47;;;3.75;;
36827;SDS011;22766;48.042;11.192;2023-06-22T02:57:24;7.68;;;4.40;;
36827;SDS011;22766;48.042;11.192;2023-06-22T02:59:50;12.23;;;3.20;;
36827;SDS011;22766;48.042;11.192;2023-06-22T03:02:17;8.70;;;3.53;;
36827;SDS011;22766;48.042;11.192;2023-06-22T03:04:47;6.95;;;3.20;;
36827;SDS011;22766;48.042;11.192;2023-06-22T03:07:15;7.50;;;3.58;;
36827;SDS011;22766;48.042;11.192;2023-06-22T03:09:44;11.98;;;3.80;;
36827;SDS011;22766;48.042;11.192;2023-06-22T03:12:11;6.03;;;3.22;;
36827;SDS011;22766;48.042;11.192;2023-06-22T03:14:46;10.13;;;3.78;;
36827;SDS011;22766;48.042;11.192;2023-06-22T03:17:13;13.30;;;3.95;;
36827;SDS011;22766;48.042;11.192;2023-06-22T03:19:40;7.65;;;3.47;;
36827;SDS011;22766;48.042;11.192;2023-06-22T03:22:07;11.00;;;3.42;;
36827;SDS011;22766;48.042;11.192;2023-06-22T03:24:34;8.50;;;3.58;;
36827;SDS011;22766;48.042;11.192;2023-06-22T03:27:01;7.40;;;4.00;;
36827;SDS011;22766;48.042;11.192;2023-06-22T03:29:32;5.03;;;2.88;;
36827;SDS011;22766;48.042;11.192;2023-06-22T03:32:00;11.25;;;3.28;;
36827;SDS011;22766;48.042;11.192;2023-06-22T03:34:28;9.13;;;3.05;;
36827;SDS011;22766;48.042;11.192;2023-06-22T03:36:54;6.07;;;3.25;;
36827;SDS011;22766;48.042;11.192;2023-06-22T03:39:22;10.57;;;3.80;;
36827;SDS011;22766;48.042;11.192;2023-06-22T03:41:48;7.47;;;3.78;;
36827;SDS011;22766;48.042;11.192;2023-06-22T03:44:16;6.60;;;3.15;;
36827;SDS011;22766;48.042;11.192;2023-06-22T03:46:43;7.03;;;3.40;;
36827;SDS011;22766;48.042;11.192;2023-06-22T03:49:10;8.77;;;3.88;;
36827;SDS011;22766;48.042;11.192;2023-06-22T03:51:37;6.50;;;3.30;;
36827;SDS011;22766;48.042;11.192;2023-06-22T03:54:04;5.78;;;3.30;;
36827;SDS011;22766;48.042;11.192;2023-06-22T03:56:30;6.18;;;2.90;;
36827;SDS011;22766;48.042;11.192;2023-06-22T03:58:58;8.10;;;3.58;;
36827;SDS011;22766;48.042;11.192;2023-06-22T04:01:24;8.13;;;3.10;;
36827;SDS011;22766;48.042;11.192;2023-06-22T04:03:51;6.50;;;3.65;;
36827;SDS011;22766;48.042;11.192;2023-06-22T04:06:18;15.52;;;3.42;;
36827;SDS011;22766;48.042;11.192;2023-06-22T04:08:45;4.20;;;2.88;;
36827;SDS011;22766;48.042;11.192;2023-06-22T04:11:17;5.70;;;2.80;;
36827;SDS011;22766;48.042;11.192;2023-06-22T04:13:44;5.57;;;2.92;;
36827;SDS011;22766;48.042;11.192;2023-06-22T04:16:11;6.10;;;2.80;;
36827;SDS011;22766;48.042;11.192;2023-06-22T04:18:38;8.50;;;3.00;;
36827;SDS011;22766;48.042;11.192;2023-06-22T04:21:04;4.80;;;2.72;;
36827;SDS011;22766;48.042;11.192;2023-06-22T04:23:31;6.75;;;3.05;;
36827;SDS011;22766;48.042;11.192;2023-06-22T04:25:58;7.13;;;3.40;;
36827;SDS011;22766;48.042;11.192;2023-06-22T04:28:25;7.28;;;3.40;;
36827;SDS011;22766;48.042;11.192;2023-06-22T04:30:53;9.27;;;3.10;;
36827;SDS011;22766;48.042;11.192;2023-06-22T04:33:24;6.35;;;3.03;;
36827;SDS011;22766;48.042;11.192;2023-06-22T04:35:51;5.05;;;2.75;;
36827;SDS011;22766;48.042;11.192;2023-06-22T04:38:18;9.98;;;3.55;;
36827;SDS011;22766;48.042;11.192;2023-06-22T04:40:47;10.48;;;2.92;;
36827;SDS011;22766;48.042;11.192;2023-06-22T04:43:14;4.47;;;3.15;;
36827;SDS011;22766;48.042;11.192;2023-06-22T04:45:41;5.43;;;3.20;;
36827;SDS011;22766;48.042;11.192;2023-06-22T04:48:08;8.48;;;3.25;;
36827;SDS011;22766;48.042;11.192;2023-06-22T04:50:42;12.80;;;3.85;;
36827;SDS011;22766;48.042;11.192;2023-06-22T04:53:09;7.38;;;3.25;;
36827;SDS011;22766;48.042;11.192;2023-06-22T04:55:36;7.45;;;3.35;;
36827;SDS011;22766;48.042;11.192;2023-06-22T04:58:04;9.98;;;3.90;;
36827;SDS011;22766;48.042;11.192;2023-06-22T05:00:31;9.48;;;4.00;;
36827;SDS011;22766;48.042;11.192;2023-06-22T05:02:58;7.03;;;3.38;;
36827;SDS011;22766;48.042;11.192;2023-06-22T05:05:44;11.30;;;2.97;;
36827;SDS011;22766;48.042;11.192;2023-06-22T05:08:11;6.63;;;3.47;;
36827;SDS011;22766;48.042;11.192;2023-06-22T05:10:38;5.75;;;2.92;;
36827;SDS011;22766;48.042;11.192;2023-06-22T05:13:20;12.40;;;4.05;;
36827;SDS011;22766;48.042;11.192;2023-06-22T05:15:48;7.55;;;4.10;;
36827;SDS011;22766;48.042;11.192;2023-06-22T05:18:14;12.40;;;3.20;;
36827;SDS011;22766;48.042;11.192;2023-06-22T05:20:41;11.55;;;4.45;;
36827;SDS011;22766;48.042;11.192;2023-06-22T05:23:08;8.00;;;3.60;;
36827;SDS011;22766;48.042;11.192;2023-06-22T05:25:35;10.68;;;4.05;;
36827;SDS011;22766;48.042;11.192;2023-06-22T05:28:01;8.80;;;4.32;;
36827;SDS011;22766;48.042;11.192;2023-06-22T05:30:32;16.33;;;3.80;;
36827;SDS011;22766;48.042;11.192;2023-06-22T05:32:58;10.20;;;4.15;;
36827;SDS011;22766;48.042;11.192;2023-06-22T05:35:25;6.88;;;3.40;;
36827;SDS011;22766;48.042;11.192;2023-06-22T05:37:52;10.48;;;3.80;;
36827;SDS011;22766;48.042;11.192;2023-06-22T05:40:19;7.22;;;3.60;;
36827;SDS011;22766;48.042;11.192;2023-06-22T05:42:46;8.50;;;3.53;;
36827;SDS011;22766;48.042;11.192;2023-06-22T05:45:12;7.63;;;3.35;;
36827;SDS011;22766;48.042;11.192;2023-06-22T05:47:39;9.50;;;3.80;;
36827;SDS011;22766;48.042;11.192;2023-06-22T05:50:06;9.68;;;3.70;;
36827;SDS011;22766;48.042;11.192;2023-06-22T05:52:38;9.50;;;4.05;;
36827;SDS011;22766;48.042;11.192;2023-06-22T05:55:05;10.48;;;3.45;;
36827;SDS011;22766;48.042;11.192;2023-06-22T05:57:32;9.30;;;3.65;;
36827;SDS011;22766;48.042;11.192;2023-06-22T05:59:59;9.15;;;3.67;;
36827;SDS011;22766;48.042;11.192;2023-06-22T06:02:25;9.80;;;3.33;;
36827;SDS011;22766;48.042;11.192;2023-06-22T06:04:52;9.10;;;3.90;;
36827;SDS011;22766;48.042;11.192;2023-06-22T06:07:19;8.95;;;3.63;;
36827;SDS011;22766;48.042;11.192;2023-06-22T06:09:45;8.57;;;3.80;;
36827;SDS011;22766;48.042;11.192;2023-06-22T06:12:12;7.75;;;3.50;;
36827;SDS011;22766;48.042;11.192;2023-06-22T06:14:39;10.18;;;3.45;;
36827;SDS011;22766;48.042;11.192;2023-06-22T06:17:06;10.90;;;3.90;;
36827;SDS011;22766;48.042;11.192;2023-06-22T06:19:32;12.32;;;4.72;;
36827;SDS011;22766;48.042;11.192;2023-06-22T06:21:59;10.07;;;4.40;;
36827;SDS011;22766;48.042;11.192;2023-06-22T06:24:26;12.25;;;4.68;;
36827;SDS011;22766;48.042;11.192;2023-06-22T06:26:53;17.63;;;4.03;;
36827;SDS011;22766;48.042;11.192;2023-06-22T06:29:20;11.43;;;4.10;;
36827;SDS011;22766;48.042;11.192;2023-06-22T06:31:46;7.25;;;3.75;;
36827;SDS011;22766;48.042;11.192;2023-06-22T06:34:14;8.48;;;3.65;;
36827;SDS011;22766;48.042;11.192;2023-06-22T06:36:41;11.43;;;3.55;;
36827;SDS011;22766;48.042;11.192;2023-06-22T06:39:08;9.20;;;4.07;;
36827;SDS011;22766;48.042;11.192;2023-06-22T06:41:36;12.43;;;4.15;;
36827;SDS011;22766;48.042;11.192;2023-06-22T06:44:02;9.48;;;4.13;;
36827;SDS011;22766;48.042;11.192;2023-06-22T06:46:29;11.07;;;3.90;;
36827;SDS011;22766;48.042;11.192;2023-06-22T06:48:56;11.63;;;3.85;;
36827;SDS011;22766;48.042;11.192;2023-06-22T06:51:23;12.07;;;4.10;;
36827;SDS011;22766;48.042;11.192;2023-06-22T06:53:49;11.85;;;4.43;;
36827;SDS011;22766;48.042;11.192;2023-06-22T06:56:16;12.40;;;3.80;;
36827;SDS011;22766;48.042;11.192;2023-06-22T06:58:43;10.75;;;4.35;;
36827;SDS011;22766;48.042;11.192;2023-06-22T07:01:12;8.95;;;4.15;;
36827;SDS011;22766;48.042;11.192;2023-06-22T07:03:39;12.27;;;4.45;;
36827;SDS011;22766;48.042;11.192;2023-06-22T07:06:05;9.18;;;4.38;;
36827;SDS011;22766;48.042;11.192;2023-06-22T07:08:32;10.50;;;3.40;;
36827;SDS011;22766;48.042;11.192;2023-06-22T07:10:59;10.10;;;4.05;;
36827;SDS011;22766;48.042;11.192;2023-06-22T07:13:27;12.10;;;3.95;;
36827;SDS011;22766;48.042;11.192;2023-06-22T07:15:54;11.18;;;4.10;;
36827;SDS011;22766;48.042;11.192;2023-06-22T07:18:20;12.88;;;3.85;;
36827;SDS011;22766;48.042;11.192;2023-06-22T07:20:47;10.68;;;4.32;;
36827;SDS011;22766;48.042;11.192;2023-06-22T07:23:14;13.57;;;4.65;;
36827;SDS011;22766;48.042;11.192;2023-06-22T07:25:40;9.25;;;4.13;;
36827;SDS011;22766;48.042;11.192;2023-06-22T07:28:07;11.10;;;3.90;;
36827;SDS011;22766;48.042;11.192;2023-06-22T07:30:34;7.72;;;3.60;;
36827;SDS011;22766;48.042;11.192;2023-06-22T07:33:01;13.63;;;4.90;;
36827;SDS011;22766;48.042;11.192;2023-06-22T07:35:35;8.95;;;3.65;;
36827;SDS011;22766;48.042;11.192;2023-06-22T07:38:02;11.90;;;4.78;;
36827;SDS011;22766;48.042;11.192;2023-06-22T07:40:31;10.43;;;4.20;;
36827;SDS011;22766;48.042;11.192;2023-06-22T07:42:58;9.88;;;3.58;;
36827;SDS011;22766;48.042;11.192;2023-06-22T07:45:25;9.68;;;4.95;;
36827;SDS011;22766;48.042;11.192;2023-06-22T07:47:52;14.65;;;4.70;;
36827;SDS011;22766;48.042;11.192;2023-06-22T07:50:18;7.95;;;4.22;;
36827;SDS011;22766;48.042;11.192;2023-06-22T07:52:45;10.18;;;4.32;;
36827;SDS011;22766;48.042;11.192;2023-06-22T07:55:13;10.65;;;4.18;;
36827;SDS011;22766;48.042;11.192;2023-06-22T07:57:40;13.57;;;5.15;;
36827;SDS011;22766;48.042;11.192;2023-06-22T08:00:08;9.45;;;3.80;;
36827;SDS011;22766;48.042;11.192;2023-06-22T08:02:44;13.57;;;4.53;;
36827;SDS011;22766;48.042;11.192;2023-06-22T08:05:13;10.18;;;4.47;;
36827;SDS011;22766;48.042;11.192;2023-06-22T08:07:48;11.50;;;4.75;;
36827;SDS011;22766;48.042;11.192;2023-06-22T08:10:15;10.57;;;4.10;;
36827;SDS011;22766;48.042;11.192;2023-06-22T08:12:42;11.73;;;4.65;;
36827;SDS011;22766;48.042;11.192;2023-06-22T08:15:09;16.50;;;4.22;;
36827;SDS011;22766;48.042;11.192;2023-06-22T08:17:37;11.00;;;4.03;;
36827;SDS011;22766;48.042;11.192;2023-06-22T08:20:05;8.98;;;3.63;;
36827;SDS011;22766;48.042;11.192;2023-06-22T08:22:39;10.65;;;4.28;;
36827;SDS011;22766;48.042;11.192;2023-06-22T08:25:07;9.85;;;4.05;;
36827;SDS011;22766;48.042;11.192;2023-06-22T08:27:35;11.05;;;3.78;;
36827;SDS011;22766;48.042;11.192;2023-06-22T08:30:02;11.68;;;4.55;;
36827;SDS011;22766;48.042;11.192;2023-06-22T08:32:29;8.73;;;4.30;;
36827;SDS011;22766;48.042;11.192;2023-06-22T08:34:56;12.45;;;5.03;;
36827;SDS011;22766;48.042;11.192;2023-06-22T08:37:23;12.63;;;6.10;;
36827;SDS011;22766;48.042;11.192;2023-06-22T08:39:58;11.57;;;4.32;;
36827;SDS011;22766;48.042;11.192;2023-06-22T08:42:25;7.25;;;4.45;;
36827;SDS011;22766;48.042;11.192;2023-06-22T08:44:52;10.43;;;4.10;;
36827;SDS011;22766;48.042;11.192;2023-06-22T08:47:20;10.60;;;4.20;;
36827;SDS011;22766;48.042;11.192;2023-06-22T08:49:47;14.63;;;4.90;;
36827;SDS011;22766;48.042;11.192;2023-06-22T08:52:14;12.20;;;4.50;;
36827;SDS011;22766;48.042;11.192;2023-06-22T08:54:41;13.82;;;4.50;;
36827;SDS011;22766;48.042;11.192;2023-06-22T08:57:08;11.13;;;4.15;;
36827;SDS011;22766;48.042;11.192;2023-06-22T08:59:34;15.63;;;4.90;;
36827;SDS011;22766;48.042;11.192;2023-06-22T09:02:01;10.50;;;4.07;;
36827;SDS011;22766;48.042;11.192;2023-06-22T09:04:28;5.80;;;3.70;;
36827;SDS011;22766;48.042;11.192;2023-06-22T09:06:55;10.95;;;4.90;;
36827;SDS011;22766;48.042;11.192;2023-06-22T09:09:21;10.07;;;4.45;;
36827;SDS011;22766;48.042;11.192;2023-06-22T09:11:48;11.07;;;4.38;;
36827;SDS011;22766;48.042;11.192;2023-06-22T09:14:15;9.50;;;4.30;;
36827;SDS011;22766;48.042;11.192;2023-06-22T09:16:42;10.05;;;4.43;;
36827;SDS011;22766;48.042;11.192;2023-06-22T09:19:09;7.40;;;3.75;;
36827;SDS011;22766;48.042;11.192;2023-06-22T09:21:36;7.90;;;4.70;;
36827;SDS011;22766;48.042;11.192;2023-06-22T09:24:03;15.20;;;4.85;;
36827;SDS011;22766;48.042;11.192;2023-06-22T09:26:30;14.27;;;4.00;;
36827;SDS011;22766;48.042;11.192;2023-06-22T09:28:56;15.20;;;4.60;;
36827;SDS011;22766;48.042;11.192;2023-06-22T09:31:24;18.58;;;5.20;;
36827;SDS011;22766;48.042;11.192;2023-06-22T09:33:54;8.00;;;4.25;;
36827;SDS011;22766;48.042;11.192;2023-06-22T09:36:21;13.55;;;5.25;;
36827;SDS011;22766;48.042;11.192;2023-06-22T09:38:48;10.52;;;4.07;;
36827;SDS011;22766;48.042;11.192;2023-06-22T09:41:15;8.75;;;4.40;;
36827;SDS011;22766;48.042;11.192;2023-06-22T09:43:42;13.30;;;5.28;;
36827;SDS011;22766;48.042;11.192;2023-06-22T09:46:09;11.40;;;3.42;;
36827;SDS011;22766;48.042;11.192;2023-06-22T09:48:36;16.25;;;4.40;;
36827;SDS011;22766;48.042;11.192;2023-06-22T09:51:06;14.68;;;4.63;;
36827;SDS011;22766;48.042;11.192;2023-06-22T09:53:32;12.18;;;4.28;;
36827;SDS011;22766;48.042;11.192;2023-06-22T09:56:01;13.15;;;5.10;;
36827;SDS011;22766;48.042;11.192;2023-06-22T09:58:28;8.85;;;4.05;;
36827;SDS011;22766;48.042;11.192;2023-06-22T10:00:55;11.07;;;4.57;;
36827;SDS011;22766;48.042;11.192;2023-06-22T10:03:21;13.07;;;4.07;;
36827;SDS011;22766;48.042;11.192;2023-06-22T10:05:49;12.63;;;4.22;;
36827;SDS011;22766;48.042;11.192;2023-06-22T10:08:16;11.57;;;4.60;;
36827;SDS011;22766;48.042;11.192;2023-06-22T10:10:42;9.23;;;3.95;;
36827;SDS011;22766;48.042;11.192;2023-06-22T10:13:09;11.63;;;4.07;;
36827;SDS011;22766;48.042;11.192;2023-06-22T10:15:37;12.75;;;3.92;;
36827;SDS011;22766;48.042;11.192;2023-06-22T10:18:04;13.70;;;4.55;;
36827;SDS011;22766;48.042;11.192;2023-06-22T10:20:32;10.45;;;3.72;;
36827;SDS011;22766;48.042;11.192;2023-06-22T10:22:58;12.63;;;3.95;;
36827;SDS011;22766;48.042;11.192;2023-06-22T10:25:26;10.77;;;4.38;;
36827;SDS011;22766;48.042;11.192;2023-06-22T10:27:53;15.02;;;4.32;;
36827;SDS011;22766;48.042;11.192;2023-06-22T10:30:20;7.10;;;3.53;;
36827;SDS011;22766;48.042;11.192;2023-06-22T10:32:47;10.40;;;4.40;;
36827;SDS011;22766;48.042;11.192;2023-06-22T10:35:14;10.02;;;4.40;;
36827;SDS011;22766;48.042;11.192;2023-06-22T10:37:46;9.68;;;4.82;;
36827;SDS011;22766;48.042;11.192;2023-06-22T10:40:14;10.20;;;4.40;;
36827;SDS011;22766;48.042;11.192;2023-06-22T10:42:42;14.20;;;4.30;;
36827;SDS011;22766;48.042;11.192;2023-06-22T10:45:09;13.38;;;3.50;;
36827;SDS011;22766;48.042;11.192;2023-06-22T10:47:36;16.52;;;4.78;;
36827;SDS011;22766;48.042;11.192;2023-06-22T10:50:03;9.65;;;3.80;;
36827;SDS011;22766;48.042;11.192;2023-06-22T10:52:31;11.75;;;5.07;;
36827;SDS011;22766;48.042;11.192;2023-06-22T10:54:58;11.75;;;4.28;;
36827;SDS011;22766;48.042;11.192;2023-06-22T10:57:24;15.90;;;3.90;;
36827;SDS011;22766;48.042;11.192;2023-06-22T10:59:51;9.73;;;4.00;;
36827;SDS011;22766;48.042;11.192;2023-06-22T11:02:18;13.10;;;4.18;;
36827;SDS011;22766;48.042;11.192;2023-06-22T11:04:45;10.77;;;3.83;;
36827;SDS011;22766;48.042;11.192;2023-06-22T11:07:12;10.98;;;3.97;;
36827;SDS011;22766;48.042;11.192;2023-06-22T11:09:39;9.88;;;3.95;;
36827;SDS011;22766;48.042;11.192;2023-06-22T11:12:06;14.32;;;4.45;;
36827;SDS011;22766;48.042;11.192;2023-06-22T11:14:33;10.60;;;4.35;;
36827;SDS011;22766;48.042;11.192;2023-06-22T11:17:00;14.00;;;3.70;;
36827;SDS011;22766;48.042;11.192;2023-06-22T11:19:26;10.52;;;4.18;;
36827;SDS011;22766;48.042;11.192;2023-06-22T11:21:53;11.15;;;4.18;;
36827;SDS011;22766;48.042;11.192;2023-06-22T11:24:20;13.85;;;3.72;;
36827;SDS011;22766;48.042;11.192;2023-06-22T11:26:47;14.82;;;4.00;;
36827;SDS011;22766;48.042;11.192;2023-06-22T11:29:14;10.05;;;3.45;;
36827;SDS011;22766;48.042;11.192;2023-06-22T11:32:00;13.80;;;4.70;;
36827;SDS011;22766;48.042;11.192;2023-06-22T11:34:27;13.65;;;3.70;;
36827;SDS011;22766;48.042;11.192;2023-06-22T11:36:54;15.10;;;4.30;;
36827;SDS011;22766;48.042;11.192;2023-06-22T11:39:21;10.63;;;3.83;;
36827;SDS011;22766;48.042;11.192;2023-06-22T11:42:04;17.67;;;4.28;;
36827;SDS011;22766;48.042;11.192;2023-06-22T11:44:31;11.98;;;3.40;;
36827;SDS011;22766;48.042;11.192;2023-06-22T11:46:58;16.02;;;4.75;;
36827;SDS011;22766;48.042;11.192;2023-06-22T11:49:27;13.17;;;4.67;;
36827;SDS011;22766;48.042;11.192;2023-06-22T11:51:53;10.35;;;3.75;;
36827;SDS011;22766;48.042;11.192;2023-06-22T11:54:20;14.32;;;3.25;;
36827;SDS011;22766;48.042;11.192;2023-06-22T11:56:47;8.82;;;3.55;;
36827;SDS011;22766;48.042;11.192;2023-06-22T11:59:14;18.05;;;5.05;;
36827;SDS011;22766;48.042;11.192;2023-06-22T12:01:41;10.88;;;3.88;;
36827;SDS011;22766;48.042;11.192;2023-06-22T12:04:07;10.30;;;4.00;;
36827;SDS011;22766;48.042;11.192;2023-06-22T12:06:37;16.23;;;4.10;;
36827;SDS011;22766;48.042;11.192;2023-06-22T12:09:08;12.55;;;4.55;;
36827;SDS011;22766;48.042;11.192;2023-06-22T12:11:34;11.55;;;4.38;;
36827;SDS011;22766;48.042;11.192;2023-06-22T12:14:01;9.10;;;3.92;;
36827;SDS011;22766;48.042;11.192;2023-06-22T12:16:28;12.23;;;4.03;;
36827;SDS011;22766;48.042;11.192;2023-06-22T12:18:55;14.15;;;4.45;;
36827;SDS011;22766;48.042;11.192;2023-06-22T12:21:22;13.63;;;4.18;;
36827;SDS011;22766;48.042;11.192;2023-06-22T12:23:49;7.60;;;3.45;;
36827;SDS011;22766;48.042;11.192;2023-06-22T12:26:16;14.05;;;3.95;;
36827;SDS011;22766;48.042;11.192;2023-06-22T12:28:42;16.50;;;4.30;;
36827;SDS011;22766;48.042;11.192;2023-06-22T12:31:09;8.63;;;4.00;;
36827;SDS011;22766;48.042;11.192;2023-06-22T12:33:36;8.25;;;4.25;;
36827;SDS011;22766;48.042;11.192;2023-06-22T12:36:03;17.85;;;4.65;;
36827;SDS011;22766;48.042;11.192;2023-06-22T12:38:31;10.70;;;4.07;;
36827;SDS011;22766;48.042;11.192;2023-06-22T12:40:58;12.32;;;4.15;;
36827;SDS011;22766;48.042;11.192;2023-06-22T12:43:25;11.02;;;4.55;;
36827;SDS011;22766;48.042;11.192;2023-06-22T12:45:51;8.57;;;3.58;;
36827;SDS011;22766;48.042;11.192;2023-06-22T12:48:22;12.82;;;4.22;;
36827;SDS011;22766;48.042;11.192;2023-06-22T12:51:21;10.50;;;4.32;;
36827;SDS011;22766;48.042;11.192;2023-06-22T12:53:49;14.40;;;3.72;;
36827;SDS011;22766;48.042;11.192;2023-06-22T12:56:15;11.40;;;3.85;;
36827;SDS011;22766;48.042;11.192;2023-06-22T12:58:42;12.93;;;4.03;;
36827;SDS011;22766;48.042;11.192;2023-06-22T13:01:09;5.40;;;3.38;;
36827;SDS011;22766;48.042;11.192;2023-06-22T13:03:35;15.43;;;4.18;;
36827;SDS011;22766;48.042;11.192;2023-06-22T13:06:02;10.18;;;4.25;;
36827;SDS011;22766;48.042;11.192;2023-06-22T13:08:29;11.88;;;3.42;;
36827;SDS011;22766;48.042;11.192;2023-06-22T13:11:16;10.55;;;4.07;;
36827;SDS011;22766;48.042;11.192;2023-06-22T13:13:44;11.15;;;3.92;;
36827;SDS011;22766;48.042;11.192;2023-06-22T13:16:12;8.80;;;4.00;;
36827;SDS011;22766;48.042;11.192;2023-06-22T13:18:38;13.00;;;3.72;;
36827;SDS011;22766;48.042;11.192;2023-06-22T13:21:05;17.10;;;4.90;;
36827;SDS011;22766;48.042;11.192;2023-06-22T13:23:32;11.07;;;4.10;;
36827;SDS011;22766;48.042;11.192;2023-06-22T13:26:00;11.75;;;4.53;;
36827;SDS011;22766;48.042;11.192;2023-06-22T13:28:27;9.25;;;4.13;;
36827;SDS011;22766;48.042;11.192;2023-06-22T13:30:55;8.45;;;3.90;;
36827;SDS011;22766;48.042;11.192;2023-06-22T13:33:22;11.65;;;4.40;;
36827;SDS011;22766;48.042;11.192;2023-06-22T13:35:49;13.63;;;4.00;;
36827;SDS011;22766;48.042;11.192;2023-06-22T13:38:16;11.38;;;4.30;;
36827;SDS011;22766;48.042;11.192;2023-06-22T13:40:43;11.18;;;3.97;;
36827;SDS011;22766;48.042;11.192;2023-06-22T13:43:10;12.93;;;4.22;;
36827;SDS011;22766;48.042;11.192;2023-06-22T13:45:37;6.95;;;3.95;;
36827;SDS011;22766;48.042;11.192;2023-06-22T13:48:04;7.47;;;3.38;;
36827;SDS011;22766;48.042;11.192;2023-06-22T13:50:31;10.13;;;3.15;;
36827;SDS011;22766;48.042;11.192;2023-06-22T13:52:58;10.38;;;4.00;;
36827;SDS011;22766;48.042;11.192;2023-06-22T13:55:24;12.90;;;4.22;;
36827;SDS011;22766;48.042;11.192;2023-06-22T13:57:52;13.98;;;4.78;;
36827;SDS011;22766;48.042;11.192;2023-06-22T14:00:19;9.77;;;3.55;;
36827;SDS011;22766;48.042;11.192;2023-06-22T14:02:46;11.23;;;3.50;;
36827;SDS011;22766;48.042;11.192;2023-06-22T14:05:13;9.60;;;4.15;;
36827;SDS011;22766;48.042;11.192;2023-06-22T14:07:40;10.40;;;3.05;;
36827;SDS011;22766;48.042;11.192;2023-06-22T14:10:07;7.10;;;3.38;;
36827;SDS011;22766;48.042;11.192;2023-06-22T14:12:34;11.73;;;4.10;;
36827;SDS011;22766;48.042;11.192;2023-06-22T14:15:01;7.57;;;3.67;;
36827;SDS011;22766;48.042;11.192;2023-06-22T14:17:27;10.75;;;3.97;;
36827;SDS011;22766;48.042;11.192;2023-06-22T14:19:54;10.40;;;3.67;;
36827;SDS011;22766;48.042;11.192;2023-06-22T14:22:21;10.20;;;3.60;;
36827;SDS011;22766;48.042;11.192;2023-06-22T14:24:48;9.88;;;4.05;;
36827;SDS011;22766;48.042;11.192;2023-06-22T14:27:15;14.15;;;4.90;;
36827;SDS011;22766;48.042;11.192;2023-06-22T14:29:42;9.30;;;4.18;;
36827;SDS011;22766;48.042;11.192;2023-06-22T14:32:09;11.13;;;4.10;;
36827;SDS011;22766;48.042;11.192;2023-06-22T14:34:36;9.57;;;3.55;;
36827;SDS011;22766;48.042;11.192;2023-06-22T14:37:08;11.35;;;3.70;;